Blackshear, Georgia
Current Conditions -  °F | °C
As of 4:15 AM on Wednesday 22 Oct 2014 (Local Time) from KAYS Reporting Station
Clear Clear  
Wind Chill: 60°   Ceiling: Unl
Heat Index: 60°   Visibility: 10mi
Dew Point: 55°   Wind: 0mph
Humidity: 84%   Direction: NA
Pressure: 29.97"   Gusts: NA
Location:  31.31°N, 82.24°W
Report Text: KAYS 220815Z AUTO 00000KT 10SM CLR 16/13 A2997 RMK AO2 T01550129
Loading
Personal Weather Stations






























Interactive Weather Map
Tropical Storm Tracking
New forecast layout! Learn more

10-Day Weather Forecast

Advertisements
Track Severe Weather on mobile